sensor_id;sensor_type;location;lat;lon;timestamp;P1;durP1;ratioP1;P2;durP2;ratioP2
7076;SDS011;3579;48.956;9.154;2024-02-14T00:00:10;1.17;;;0.90;;
7076;SDS011;3579;48.956;9.154;2024-02-14T00:02:48;1.40;;;1.00;;
7076;SDS011;3579;48.956;9.154;2024-02-14T00:05:14;1.20;;;1.10;;
7076;SDS011;3579;48.956;9.154;2024-02-14T00:07:41;1.30;;;1.20;;
7076;SDS011;3579;48.956;9.154;2024-02-14T00:10:07;1.70;;;1.10;;
7076;SDS011;3579;48.956;9.154;2024-02-14T00:12:34;1.47;;;1.10;;
7076;SDS011;3579;48.956;9.154;2024-02-14T00:15:01;1.10;;;1.00;;
7076;SDS011;3579;48.956;9.154;2024-02-14T00:17:29;1.30;;;1.10;;
7076;SDS011;3579;48.956;9.154;2024-02-14T00:19:55;1.40;;;1.10;;
7076;SDS011;3579;48.956;9.154;2024-02-14T00:22:21;1.07;;;0.90;;
7076;SDS011;3579;48.956;9.154;2024-02-14T00:24:49;1.37;;;1.07;;
7076;SDS011;3579;48.956;9.154;2024-02-14T00:27:15;1.20;;;1.10;;
7076;SDS011;3579;48.956;9.154;2024-02-14T00:29:43;1.30;;;1.10;;
7076;SDS011;3579;48.956;9.154;2024-02-14T00:32:11;1.10;;;1.00;;
7076;SDS011;3579;48.956;9.154;2024-02-14T00:34:40;2.30;;;1.20;;
7076;SDS011;3579;48.956;9.154;2024-02-14T00:37:06;1.40;;;1.07;;
7076;SDS011;3579;48.956;9.154;2024-02-14T00:39:32;1.10;;;1.00;;
7076;SDS011;3579;48.956;9.154;2024-02-14T00:41:58;1.30;;;1.07;;
7076;SDS011;3579;48.956;9.154;2024-02-14T00:44:24;1.20;;;1.10;;
7076;SDS011;3579;48.956;9.154;2024-02-14T00:46:55;1.20;;;1.00;;
7076;SDS011;3579;48.956;9.154;2024-02-14T00:49:28;1.30;;;1.00;;
7076;SDS011;3579;48.956;9.154;2024-02-14T00:51:54;1.27;;;1.07;;
7076;SDS011;3579;48.956;9.154;2024-02-14T00:54:20;1.10;;;1.00;;
7076;SDS011;3579;48.956;9.154;2024-02-14T00:56:46;1.00;;;0.90;;
7076;SDS011;3579;48.956;9.154;2024-02-14T00:59:12;1.40;;;1.10;;
7076;SDS011;3579;48.956;9.154;2024-02-14T01:01:42;1.27;;;1.00;;
7076;SDS011;3579;48.956;9.154;2024-02-14T01:04:08;1.20;;;1.10;;
7076;SDS011;3579;48.956;9.154;2024-02-14T01:06:34;1.10;;;1.00;;
7076;SDS011;3579;48.956;9.154;2024-02-14T01:09:00;0.90;;;0.90;;
7076;SDS011;3579;48.956;9.154;2024-02-14T01:11:26;1.40;;;1.10;;
7076;SDS011;3579;48.956;9.154;2024-02-14T01:13:52;1.33;;;1.00;;
7076;SDS011;3579;48.956;9.154;2024-02-14T01:16:18;1.20;;;1.10;;
7076;SDS011;3579;48.956;9.154;2024-02-14T01:18:44;1.57;;;1.13;;
7076;SDS011;3579;48.956;9.154;2024-02-14T01:21:10;1.40;;;1.00;;
7076;SDS011;3579;48.956;9.154;2024-02-14T01:23:36;1.20;;;1.10;;
7076;SDS011;3579;48.956;9.154;2024-02-14T01:26:02;1.20;;;1.10;;
7076;SDS011;3579;48.956;9.154;2024-02-14T01:28:28;1.10;;;1.00;;
7076;SDS011;3579;48.956;9.154;2024-02-14T01:30:54;1.60;;;1.20;;
7076;SDS011;3579;48.956;9.154;2024-02-14T01:33:22;1.47;;;1.20;;
7076;SDS011;3579;48.956;9.154;2024-02-14T01:35:48;1.73;;;1.30;;
7076;SDS011;3579;48.956;9.154;2024-02-14T01:38:15;2.90;;;0.90;;
7076;SDS011;3579;48.956;9.154;2024-02-14T01:40:43;1.20;;;1.10;;
7076;SDS011;3579;48.956;9.154;2024-02-14T01:43:10;1.20;;;1.07;;
7076;SDS011;3579;48.956;9.154;2024-02-14T01:45:37;2.00;;;1.40;;
7076;SDS011;3579;48.956;9.154;2024-02-14T01:48:04;1.33;;;1.13;;
7076;SDS011;3579;48.956;9.154;2024-02-14T01:50:31;1.33;;;1.00;;
7076;SDS011;3579;48.956;9.154;2024-02-14T01:52:58;1.37;;;1.17;;
7076;SDS011;3579;48.956;9.154;2024-02-14T01:55:26;1.43;;;1.33;;
7076;SDS011;3579;48.956;9.154;2024-02-14T01:57:53;1.40;;;1.00;;
7076;SDS011;3579;48.956;9.154;2024-02-14T02:00:20;1.37;;;1.20;;
7076;SDS011;3579;48.956;9.154;2024-02-14T02:02:46;1.10;;;1.00;;
7076;SDS011;3579;48.956;9.154;2024-02-14T02:05:13;1.20;;;1.10;;
7076;SDS011;3579;48.956;9.154;2024-02-14T02:07:39;1.57;;;1.20;;
7076;SDS011;3579;48.956;9.154;2024-02-14T02:10:11;1.73;;;1.20;;
7076;SDS011;3579;48.956;9.154;2024-02-14T02:12:37;1.10;;;1.00;;
7076;SDS011;3579;48.956;9.154;2024-02-14T02:15:07;1.13;;;1.00;;
7076;SDS011;3579;48.956;9.154;2024-02-14T02:17:39;1.30;;;1.07;;
7076;SDS011;3579;48.956;9.154;2024-02-14T02:20:05;1.20;;;1.10;;
7076;SDS011;3579;48.956;9.154;2024-02-14T02:22:34;1.60;;;1.30;;
7076;SDS011;3579;48.956;9.154;2024-02-14T02:25:01;1.10;;;1.00;;
7076;SDS011;3579;48.956;9.154;2024-02-14T02:27:33;1.40;;;1.20;;
7076;SDS011;3579;48.956;9.154;2024-02-14T02:30:06;1.10;;;0.90;;
7076;SDS011;3579;48.956;9.154;2024-02-14T02:32:33;1.13;;;1.03;;
7076;SDS011;3579;48.956;9.154;2024-02-14T02:34:59;1.30;;;1.20;;
7076;SDS011;3579;48.956;9.154;2024-02-14T02:37:26;1.47;;;1.20;;
7076;SDS011;3579;48.956;9.154;2024-02-14T02:39:58;1.30;;;1.10;;
7076;SDS011;3579;48.956;9.154;2024-02-14T02:42:24;1.30;;;1.10;;
7076;SDS011;3579;48.956;9.154;2024-02-14T02:44:50;1.50;;;1.30;;
7076;SDS011;3579;48.956;9.154;2024-02-14T02:47:16;1.23;;;1.13;;
7076;SDS011;3579;48.956;9.154;2024-02-14T02:49:45;1.30;;;1.10;;
7076;SDS011;3579;48.956;9.154;2024-02-14T02:52:12;1.40;;;1.30;;
7076;SDS011;3579;48.956;9.154;2024-02-14T02:54:38;1.30;;;1.10;;
7076;SDS011;3579;48.956;9.154;2024-02-14T02:57:09;1.57;;;1.20;;
7076;SDS011;3579;48.956;9.154;2024-02-14T02:59:36;1.40;;;1.20;;
7076;SDS011;3579;48.956;9.154;2024-02-14T03:02:02;1.80;;;1.30;;
7076;SDS011;3579;48.956;9.154;2024-02-14T03:04:29;1.40;;;1.20;;
7076;SDS011;3579;48.956;9.154;2024-02-14T03:06:57;1.63;;;1.30;;
7076;SDS011;3579;48.956;9.154;2024-02-14T03:09:24;1.30;;;1.20;;
7076;SDS011;3579;48.956;9.154;2024-02-14T03:11:51;1.33;;;1.20;;
7076;SDS011;3579;48.956;9.154;2024-02-14T03:14:17;1.30;;;1.20;;
7076;SDS011;3579;48.956;9.154;2024-02-14T03:16:43;1.77;;;1.30;;
7076;SDS011;3579;48.956;9.154;2024-02-14T03:19:09;1.20;;;1.10;;
7076;SDS011;3579;48.956;9.154;2024-02-14T03:21:35;1.30;;;1.10;;
7076;SDS011;3579;48.956;9.154;2024-02-14T03:24:02;1.30;;;1.07;;
7076;SDS011;3579;48.956;9.154;2024-02-14T03:26:33;1.20;;;1.10;;
7076;SDS011;3579;48.956;9.154;2024-02-14T03:28:59;1.30;;;1.10;;
7076;SDS011;3579;48.956;9.154;2024-02-14T03:31:26;1.40;;;1.30;;
7076;SDS011;3579;48.956;9.154;2024-02-14T03:33:52;1.30;;;1.00;;
7076;SDS011;3579;48.956;9.154;2024-02-14T03:36:19;1.43;;;1.30;;
7076;SDS011;3579;48.956;9.154;2024-02-14T03:38:45;1.83;;;1.20;;
7076;SDS011;3579;48.956;9.154;2024-02-14T03:41:12;1.50;;;1.30;;
7076;SDS011;3579;48.956;9.154;2024-02-14T03:43:41;1.90;;;1.37;;
7076;SDS011;3579;48.956;9.154;2024-02-14T03:46:07;1.43;;;1.17;;
7076;SDS011;3579;48.956;9.154;2024-02-14T03:48:33;1.30;;;1.10;;
7076;SDS011;3579;48.956;9.154;2024-02-14T03:50:59;1.53;;;1.20;;
7076;SDS011;3579;48.956;9.154;2024-02-14T03:53:25;1.60;;;1.20;;
7076;SDS011;3579;48.956;9.154;2024-02-14T03:55:51;1.33;;;1.10;;
7076;SDS011;3579;48.956;9.154;2024-02-14T03:58:19;1.33;;;1.03;;
7076;SDS011;3579;48.956;9.154;2024-02-14T04:00:52;1.33;;;1.17;;
7076;SDS011;3579;48.956;9.154;2024-02-14T04:03:18;1.63;;;1.23;;
7076;SDS011;3579;48.956;9.154;2024-02-14T04:05:44;1.20;;;1.03;;
7076;SDS011;3579;48.956;9.154;2024-02-14T04:08:10;1.43;;;1.07;;
7076;SDS011;3579;48.956;9.154;2024-02-14T04:10:37;1.20;;;1.10;;
7076;SDS011;3579;48.956;9.154;2024-02-14T04:13:04;1.47;;;1.20;;
7076;SDS011;3579;48.956;9.154;2024-02-14T04:15:30;1.10;;;1.00;;
7076;SDS011;3579;48.956;9.154;2024-02-14T04:17:57;1.30;;;1.10;;
7076;SDS011;3579;48.956;9.154;2024-02-14T04:20:25;1.90;;;1.20;;
7076;SDS011;3579;48.956;9.154;2024-02-14T04:22:51;1.30;;;1.20;;
7076;SDS011;3579;48.956;9.154;2024-02-14T04:25:17;1.50;;;1.20;;
7076;SDS011;3579;48.956;9.154;2024-02-14T04:27:44;1.30;;;1.17;;
7076;SDS011;3579;48.956;9.154;2024-02-14T04:30:10;1.93;;;1.27;;
7076;SDS011;3579;48.956;9.154;2024-02-14T04:32:36;1.70;;;1.20;;
7076;SDS011;3579;48.956;9.154;2024-02-14T04:35:02;1.20;;;1.10;;
7076;SDS011;3579;48.956;9.154;2024-02-14T04:37:29;1.27;;;1.17;;
7076;SDS011;3579;48.956;9.154;2024-02-14T04:39:55;2.30;;;1.37;;
7076;SDS011;3579;48.956;9.154;2024-02-14T04:42:21;1.37;;;1.23;;
7076;SDS011;3579;48.956;9.154;2024-02-14T04:44:47;1.33;;;1.20;;
7076;SDS011;3579;48.956;9.154;2024-02-14T04:47:13;1.40;;;1.20;;
7076;SDS011;3579;48.956;9.154;2024-02-14T04:49:40;1.50;;;1.30;;
7076;SDS011;3579;48.956;9.154;2024-02-14T04:52:06;1.53;;;1.30;;
7076;SDS011;3579;48.956;9.154;2024-02-14T04:54:33;1.50;;;1.20;;
7076;SDS011;3579;48.956;9.154;2024-02-14T04:56:59;1.70;;;1.20;;
7076;SDS011;3579;48.956;9.154;2024-02-14T04:59:25;1.57;;;1.30;;
7076;SDS011;3579;48.956;9.154;2024-02-14T05:01:51;1.57;;;1.30;;
7076;SDS011;3579;48.956;9.154;2024-02-14T05:04:19;1.63;;;1.30;;
7076;SDS011;3579;48.956;9.154;2024-02-14T05:06:46;1.33;;;1.23;;
7076;SDS011;3579;48.956;9.154;2024-02-14T05:09:12;1.50;;;1.40;;
7076;SDS011;3579;48.956;9.154;2024-02-14T05:11:40;1.80;;;1.40;;
7076;SDS011;3579;48.956;9.154;2024-02-14T05:14:06;2.03;;;1.40;;
7076;SDS011;3579;48.956;9.154;2024-02-14T05:16:32;1.30;;;1.10;;
7076;SDS011;3579;48.956;9.154;2024-02-14T05:18:58;2.10;;;1.20;;
7076;SDS011;3579;48.956;9.154;2024-02-14T05:21:26;1.90;;;1.37;;
7076;SDS011;3579;48.956;9.154;2024-02-14T05:23:53;1.70;;;1.50;;
7076;SDS011;3579;48.956;9.154;2024-02-14T05:26:19;1.50;;;1.30;;
7076;SDS011;3579;48.956;9.154;2024-02-14T05:28:45;1.47;;;1.30;;
7076;SDS011;3579;48.956;9.154;2024-02-14T05:31:11;1.40;;;1.30;;
7076;SDS011;3579;48.956;9.154;2024-02-14T05:33:37;1.57;;;1.23;;
7076;SDS011;3579;48.956;9.154;2024-02-14T05:36:03;1.70;;;1.50;;
7076;SDS011;3579;48.956;9.154;2024-02-14T05:38:31;2.50;;;1.70;;
7076;SDS011;3579;48.956;9.154;2024-02-14T05:40:59;1.50;;;1.40;;
7076;SDS011;3579;48.956;9.154;2024-02-14T05:43:26;1.77;;;1.40;;
7076;SDS011;3579;48.956;9.154;2024-02-14T05:45:52;1.77;;;1.60;;
7076;SDS011;3579;48.956;9.154;2024-02-14T05:48:19;1.50;;;1.30;;
7076;SDS011;3579;48.956;9.154;2024-02-14T05:50:45;1.83;;;1.40;;
7076;SDS011;3579;48.956;9.154;2024-02-14T05:53:11;1.80;;;1.30;;
7076;SDS011;3579;48.956;9.154;2024-02-14T05:55:38;1.70;;;1.23;;
7076;SDS011;3579;48.956;9.154;2024-02-14T05:58:04;1.43;;;1.30;;
7076;SDS011;3579;48.956;9.154;2024-02-14T06:00:30;1.83;;;1.40;;
7076;SDS011;3579;48.956;9.154;2024-02-14T06:02:56;1.93;;;1.47;;
7076;SDS011;3579;48.956;9.154;2024-02-14T06:05:22;1.80;;;1.40;;
7076;SDS011;3579;48.956;9.154;2024-02-14T06:07:49;1.63;;;1.37;;
7076;SDS011;3579;48.956;9.154;2024-02-14T06:10:16;1.97;;;1.60;;
7076;SDS011;3579;48.956;9.154;2024-02-14T06:12:43;1.73;;;1.30;;
7076;SDS011;3579;48.956;9.154;2024-02-14T06:15:10;1.40;;;1.30;;
7076;SDS011;3579;48.956;9.154;2024-02-14T06:17:36;1.40;;;1.20;;
7076;SDS011;3579;48.956;9.154;2024-02-14T06:20:02;1.43;;;1.23;;
7076;SDS011;3579;48.956;9.154;2024-02-14T06:22:31;1.77;;;1.10;;
7076;SDS011;3579;48.956;9.154;2024-02-14T06:24:58;1.50;;;1.23;;
7076;SDS011;3579;48.956;9.154;2024-02-14T06:27:25;1.73;;;1.47;;
7076;SDS011;3579;48.956;9.154;2024-02-14T06:29:51;3.20;;;1.50;;
7076;SDS011;3579;48.956;9.154;2024-02-14T06:32:18;1.50;;;1.40;;
7076;SDS011;3579;48.956;9.154;2024-02-14T06:34:44;1.50;;;1.40;;
7076;SDS011;3579;48.956;9.154;2024-02-14T06:37:10;1.70;;;1.50;;
7076;SDS011;3579;48.956;9.154;2024-02-14T06:39:36;1.90;;;1.40;;
7076;SDS011;3579;48.956;9.154;2024-02-14T06:42:02;1.90;;;1.60;;
7076;SDS011;3579;48.956;9.154;2024-02-14T06:44:28;1.60;;;1.40;;
7076;SDS011;3579;48.956;9.154;2024-02-14T06:46:55;1.87;;;1.40;;
7076;SDS011;3579;48.956;9.154;2024-02-14T06:49:21;1.77;;;1.40;;
7076;SDS011;3579;48.956;9.154;2024-02-14T06:51:48;1.40;;;1.30;;
7076;SDS011;3579;48.956;9.154;2024-02-14T06:54:14;1.60;;;1.40;;
7076;SDS011;3579;48.956;9.154;2024-02-14T06:56:42;1.50;;;1.37;;
7076;SDS011;3579;48.956;9.154;2024-02-14T06:59:08;2.20;;;1.60;;
7076;SDS011;3579;48.956;9.154;2024-02-14T07:01:34;1.70;;;1.27;;
7076;SDS011;3579;48.956;9.154;2024-02-14T07:04:00;1.60;;;1.30;;
7076;SDS011;3579;48.956;9.154;2024-02-14T07:06:26;1.50;;;1.40;;
7076;SDS011;3579;48.956;9.154;2024-02-14T07:08:53;2.00;;;1.57;;
7076;SDS011;3579;48.956;9.154;2024-02-14T07:11:19;1.97;;;1.40;;
7076;SDS011;3579;48.956;9.154;2024-02-14T07:13:45;1.80;;;1.40;;
7076;SDS011;3579;48.956;9.154;2024-02-14T07:16:11;1.83;;;1.40;;
7076;SDS011;3579;48.956;9.154;2024-02-14T07:18:38;1.70;;;1.40;;
7076;SDS011;3579;48.956;9.154;2024-02-14T07:21:04;1.87;;;1.20;;
7076;SDS011;3579;48.956;9.154;2024-02-14T07:23:31;2.03;;;1.50;;
7076;SDS011;3579;48.956;9.154;2024-02-14T07:25:58;2.07;;;1.30;;
7076;SDS011;3579;48.956;9.154;2024-02-14T07:28:24;1.80;;;1.50;;
7076;SDS011;3579;48.956;9.154;2024-02-14T07:30:50;1.43;;;1.33;;
7076;SDS011;3579;48.956;9.154;2024-02-14T07:33:16;1.73;;;1.40;;
7076;SDS011;3579;48.956;9.154;2024-02-14T07:35:42;2.17;;;1.60;;
7076;SDS011;3579;48.956;9.154;2024-02-14T07:38:08;1.70;;;1.30;;
7076;SDS011;3579;48.956;9.154;2024-02-14T07:40:34;1.63;;;1.50;;
7076;SDS011;3579;48.956;9.154;2024-02-14T07:43:01;1.87;;;1.50;;
7076;SDS011;3579;48.956;9.154;2024-02-14T07:45:33;1.70;;;1.40;;
7076;SDS011;3579;48.956;9.154;2024-02-14T07:47:59;2.00;;;1.60;;
7076;SDS011;3579;48.956;9.154;2024-02-14T07:50:25;2.00;;;1.67;;
7076;SDS011;3579;48.956;9.154;2024-02-14T07:52:53;2.00;;;1.53;;
7076;SDS011;3579;48.956;9.154;2024-02-14T07:55:19;1.57;;;1.30;;
7076;SDS011;3579;48.956;9.154;2024-02-14T07:57:45;2.00;;;1.40;;
7076;SDS011;3579;48.956;9.154;2024-02-14T08:00:11;1.97;;;1.50;;
7076;SDS011;3579;48.956;9.154;2024-02-14T08:02:43;2.00;;;1.70;;
7076;SDS011;3579;48.956;9.154;2024-02-14T08:05:09;1.50;;;1.37;;
7076;SDS011;3579;48.956;9.154;2024-02-14T08:07:36;2.00;;;1.50;;
7076;SDS011;3579;48.956;9.154;2024-02-14T08:10:02;2.10;;;1.63;;
7076;SDS011;3579;48.956;9.154;2024-02-14T08:12:28;2.03;;;1.50;;
7076;SDS011;3579;48.956;9.154;2024-02-14T08:14:55;1.83;;;1.50;;
7076;SDS011;3579;48.956;9.154;2024-02-14T08:17:21;1.77;;;1.47;;
7076;SDS011;3579;48.956;9.154;2024-02-14T08:19:47;1.63;;;1.53;;
7076;SDS011;3579;48.956;9.154;2024-02-14T08:22:13;1.63;;;1.30;;
7076;SDS011;3579;48.956;9.154;2024-02-14T08:24:39;1.63;;;1.50;;
7076;SDS011;3579;48.956;9.154;2024-02-14T08:27:06;1.80;;;1.40;;
7076;SDS011;3579;48.956;9.154;2024-02-14T08:29:32;3.53;;;1.97;;
7076;SDS011;3579;48.956;9.154;2024-02-14T08:31:58;1.80;;;1.40;;
7076;SDS011;3579;48.956;9.154;2024-02-14T08:34:24;2.13;;;1.53;;
7076;SDS011;3579;48.956;9.154;2024-02-14T08:36:50;2.50;;;1.60;;
7076;SDS011;3579;48.956;9.154;2024-02-14T08:39:16;2.57;;;1.70;;
7076;SDS011;3579;48.956;9.154;2024-02-14T08:41:43;1.70;;;1.50;;
7076;SDS011;3579;48.956;9.154;2024-02-14T08:44:10;1.93;;;1.60;;
7076;SDS011;3579;48.956;9.154;2024-02-14T08:46:36;1.87;;;1.50;;
7076;SDS011;3579;48.956;9.154;2024-02-14T08:49:03;2.27;;;1.57;;
7076;SDS011;3579;48.956;9.154;2024-02-14T08:51:34;2.20;;;1.80;;
7076;SDS011;3579;48.956;9.154;2024-02-14T08:54:01;2.03;;;1.60;;
7076;SDS011;3579;48.956;9.154;2024-02-14T08:56:33;2.33;;;1.47;;
7076;SDS011;3579;48.956;9.154;2024-02-14T08:59:00;1.83;;;1.60;;
7076;SDS011;3579;48.956;9.154;2024-02-14T09:01:30;2.57;;;1.60;;
7076;SDS011;3579;48.956;9.154;2024-02-14T09:03:56;2.50;;;1.60;;
7076;SDS011;3579;48.956;9.154;2024-02-14T09:06:24;2.27;;;1.50;;
7076;SDS011;3579;48.956;9.154;2024-02-14T09:08:51;1.93;;;1.60;;
7076;SDS011;3579;48.956;9.154;2024-02-14T09:11:18;1.70;;;1.50;;
7076;SDS011;3579;48.956;9.154;2024-02-14T09:13:44;2.30;;;1.60;;
7076;SDS011;3579;48.956;9.154;2024-02-14T09:16:13;2.87;;;1.60;;
7076;SDS011;3579;48.956;9.154;2024-02-14T09:18:42;2.57;;;2.00;;
7076;SDS011;3579;48.956;9.154;2024-02-14T09:21:10;2.13;;;1.50;;
7076;SDS011;3579;48.956;9.154;2024-02-14T09:23:36;3.40;;;1.40;;
7076;SDS011;3579;48.956;9.154;2024-02-14T09:26:05;2.40;;;1.50;;
7076;SDS011;3579;48.956;9.154;2024-02-14T09:28:32;2.07;;;1.70;;
7076;SDS011;3579;48.956;9.154;2024-02-14T09:31:00;1.80;;;1.60;;
7076;SDS011;3579;48.956;9.154;2024-02-14T09:33:29;2.97;;;1.70;;
7076;SDS011;3579;48.956;9.154;2024-02-14T09:35:55;1.97;;;1.50;;
7076;SDS011;3579;48.956;9.154;2024-02-14T09:38:22;1.70;;;1.57;;
7076;SDS011;3579;48.956;9.154;2024-02-14T09:40:52;1.63;;;1.40;;
7076;SDS011;3579;48.956;9.154;2024-02-14T09:43:25;3.10;;;1.60;;
7076;SDS011;3579;48.956;9.154;2024-02-14T09:46:01;1.80;;;1.50;;
7076;SDS011;3579;48.956;9.154;2024-02-14T09:48:32;2.60;;;1.53;;
7076;SDS011;3579;48.956;9.154;2024-02-14T09:50:59;2.60;;;1.43;;
7076;SDS011;3579;48.956;9.154;2024-02-14T09:53:26;1.90;;;1.43;;
7076;SDS011;3579;48.956;9.154;2024-02-14T09:55:54;2.17;;;1.57;;
7076;SDS011;3579;48.956;9.154;2024-02-14T09:58:20;2.53;;;1.80;;
7076;SDS011;3579;48.956;9.154;2024-02-14T10:00:47;2.73;;;1.80;;
7076;SDS011;3579;48.956;9.154;2024-02-14T10:03:14;3.80;;;1.60;;
7076;SDS011;3579;48.956;9.154;2024-02-14T10:05:41;2.67;;;1.60;;
7076;SDS011;3579;48.956;9.154;2024-02-14T10:08:07;1.77;;;1.53;;
7076;SDS011;3579;48.956;9.154;2024-02-14T10:10:34;1.87;;;1.50;;
7076;SDS011;3579;48.956;9.154;2024-02-14T10:13:00;2.37;;;1.73;;
7076;SDS011;3579;48.956;9.154;2024-02-14T10:15:30;1.97;;;1.50;;
7076;SDS011;3579;48.956;9.154;2024-02-14T10:18:00;2.03;;;1.73;;
7076;SDS011;3579;48.956;9.154;2024-02-14T10:20:27;2.60;;;1.70;;
7076;SDS011;3579;48.956;9.154;2024-02-14T10:23:00;2.27;;;1.30;;
7076;SDS011;3579;48.956;9.154;2024-02-14T10:25:34;2.20;;;1.60;;
7076;SDS011;3579;48.956;9.154;2024-02-14T10:28:04;2.10;;;1.47;;
7076;SDS011;3579;48.956;9.154;2024-02-14T10:30:35;1.67;;;1.57;;
7076;SDS011;3579;48.956;9.154;2024-02-14T10:33:03;2.07;;;1.43;;
7076;SDS011;3579;48.956;9.154;2024-02-14T10:35:30;2.20;;;1.73;;
7076;SDS011;3579;48.956;9.154;2024-02-14T10:37:58;2.27;;;1.77;;
7076;SDS011;3579;48.956;9.154;2024-02-14T10:40:27;2.00;;;1.73;;
7076;SDS011;3579;48.956;9.154;2024-02-14T10:42:56;2.13;;;1.70;;
7076;SDS011;3579;48.956;9.154;2024-02-14T10:45:26;2.27;;;1.50;;
7076;SDS011;3579;48.956;9.154;2024-02-14T10:47:53;1.50;;;1.40;;
7076;SDS011;3579;48.956;9.154;2024-02-14T10:50:23;1.70;;;1.50;;
7076;SDS011;3579;48.956;9.154;2024-02-14T10:52:50;2.03;;;1.40;;
7076;SDS011;3579;48.956;9.154;2024-02-14T10:55:23;1.90;;;1.57;;
7076;SDS011;3579;48.956;9.154;2024-02-14T10:57:53;2.27;;;1.40;;
7076;SDS011;3579;48.956;9.154;2024-02-14T11:00:20;2.50;;;1.50;;
7076;SDS011;3579;48.956;9.154;2024-02-14T11:02:47;1.80;;;1.40;;
7076;SDS011;3579;48.956;9.154;2024-02-14T11:05:14;1.83;;;1.50;;
7076;SDS011;3579;48.956;9.154;2024-02-14T11:07:44;1.60;;;1.40;;
7076;SDS011;3579;48.956;9.154;2024-02-14T11:10:15;1.90;;;1.60;;
7076;SDS011;3579;48.956;9.154;2024-02-14T11:12:43;1.97;;;1.57;;
7076;SDS011;3579;48.956;9.154;2024-02-14T11:15:16;1.83;;;1.40;;
7076;SDS011;3579;48.956;9.154;2024-02-14T11:17:47;2.07;;;1.60;;
7076;SDS011;3579;48.956;9.154;2024-02-14T11:20:20;1.90;;;1.43;;
7076;SDS011;3579;48.956;9.154;2024-02-14T11:22:57;3.27;;;1.60;;
7076;SDS011;3579;48.956;9.154;2024-02-14T11:25:29;1.97;;;1.50;;
7076;SDS011;3579;48.956;9.154;2024-02-14T11:27:57;2.50;;;1.60;;
7076;SDS011;3579;48.956;9.154;2024-02-14T11:30:31;2.23;;;1.50;;
7076;SDS011;3579;48.956;9.154;2024-02-14T11:33:09;2.03;;;1.40;;
7076;SDS011;3579;48.956;9.154;2024-02-14T11:35:38;1.83;;;1.40;;
7076;SDS011;3579;48.956;9.154;2024-02-14T11:38:08;1.80;;;1.60;;
7076;SDS011;3579;48.956;9.154;2024-02-14T11:40:35;2.37;;;1.60;;
7076;SDS011;3579;48.956;9.154;2024-02-14T11:43:05;2.00;;;1.53;;
7076;SDS011;3579;48.956;9.154;2024-02-14T11:45:36;1.80;;;1.50;;
7076;SDS011;3579;48.956;9.154;2024-02-14T11:48:04;1.90;;;1.60;;
7076;SDS011;3579;48.956;9.154;2024-02-14T11:50:31;1.93;;;1.50;;
7076;SDS011;3579;48.956;9.154;2024-02-14T11:52:58;2.20;;;1.43;;
7076;SDS011;3579;48.956;9.154;2024-02-14T11:55:28;2.27;;;1.60;;
7076;SDS011;3579;48.956;9.154;2024-02-14T11:57:55;1.70;;;1.47;;
7076;SDS011;3579;48.956;9.154;2024-02-14T12:00:22;2.07;;;1.20;;
7076;SDS011;3579;48.956;9.154;2024-02-14T12:02:50;2.00;;;1.50;;
7076;SDS011;3579;48.956;9.154;2024-02-14T12:05:17;2.47;;;1.50;;
7076;SDS011;3579;48.956;9.154;2024-02-14T12:07:44;1.90;;;1.43;;
7076;SDS011;3579;48.956;9.154;2024-02-14T12:10:11;1.87;;;1.50;;
7076;SDS011;3579;48.956;9.154;2024-02-14T12:12:38;1.37;;;1.27;;
7076;SDS011;3579;48.956;9.154;2024-02-14T12:15:04;3.17;;;1.70;;
7076;SDS011;3579;48.956;9.154;2024-02-14T12:17:31;3.63;;;1.50;;
7076;SDS011;3579;48.956;9.154;2024-02-14T12:20:08;5.03;;;1.80;;
7076;SDS011;3579;48.956;9.154;2024-02-14T12:22:39;2.37;;;1.50;;
7076;SDS011;3579;48.956;9.154;2024-02-14T12:25:06;2.50;;;1.53;;
7076;SDS011;3579;48.956;9.154;2024-02-14T12:27:34;1.90;;;1.47;;
7076;SDS011;3579;48.956;9.154;2024-02-14T12:30:03;4.77;;;1.83;;
7076;SDS011;3579;48.956;9.154;2024-02-14T12:32:30;3.70;;;1.77;;
7076;SDS011;3579;48.956;9.154;2024-02-14T12:34:56;3.87;;;1.57;;
7076;SDS011;3579;48.956;9.154;2024-02-14T12:37:23;2.60;;;1.60;;
7076;SDS011;3579;48.956;9.154;2024-02-14T12:39:49;1.87;;;1.30;;
7076;SDS011;3579;48.956;9.154;2024-02-14T12:42:15;2.03;;;1.60;;
7076;SDS011;3579;48.956;9.154;2024-02-14T12:44:43;2.87;;;1.80;;
7076;SDS011;3579;48.956;9.154;2024-02-14T12:47:09;3.80;;;1.87;;
7076;SDS011;3579;48.956;9.154;2024-02-14T12:49:35;4.53;;;1.50;;
7076;SDS011;3579;48.956;9.154;2024-02-14T12:52:02;2.90;;;1.70;;
7076;SDS011;3579;48.956;9.154;2024-02-14T12:54:30;3.63;;;1.70;;
7076;SDS011;3579;48.956;9.154;2024-02-14T12:56:56;2.33;;;1.67;;
7076;SDS011;3579;48.956;9.154;2024-02-14T12:59:22;3.70;;;1.70;;
7076;SDS011;3579;48.956;9.154;2024-02-14T13:01:48;2.33;;;1.60;;
7076;SDS011;3579;48.956;9.154;2024-02-14T13:04:14;4.47;;;1.70;;
7076;SDS011;3579;48.956;9.154;2024-02-14T13:06:42;3.47;;;1.80;;
7076;SDS011;3579;48.956;9.154;2024-02-14T13:09:08;4.53;;;1.80;;
7076;SDS011;3579;48.956;9.154;2024-02-14T13:11:34;3.47;;;1.80;;
7076;SDS011;3579;48.956;9.154;2024-02-14T13:14:00;7.50;;;1.63;;
7076;SDS011;3579;48.956;9.154;2024-02-14T13:16:26;3.80;;;1.90;;
7076;SDS011;3579;48.956;9.154;2024-02-14T13:18:52;2.90;;;1.67;;
7076;SDS011;3579;48.956;9.154;2024-02-14T13:21:18;2.83;;;1.80;;
7076;SDS011;3579;48.956;9.154;2024-02-14T13:23:44;5.33;;;1.80;;
7076;SDS011;3579;48.956;9.154;2024-02-14T13:26:10;4.00;;;1.70;;
7076;SDS011;3579;48.956;9.154;2024-02-14T13:28:37;3.67;;;1.70;;
7076;SDS011;3579;48.956;9.154;2024-02-14T13:31:03;5.13;;;1.70;;
7076;SDS011;3579;48.956;9.154;2024-02-14T13:33:29;2.73;;;2.00;;
7076;SDS011;3579;48.956;9.154;2024-02-14T13:35:55;2.17;;;1.20;;
7076;SDS011;3579;48.956;9.154;2024-02-14T13:38:21;1.77;;;1.37;;
7076;SDS011;3579;48.956;9.154;2024-02-14T13:40:47;2.23;;;1.47;;
7076;SDS011;3579;48.956;9.154;2024-02-14T13:43:14;4.30;;;1.60;;
7076;SDS011;3579;48.956;9.154;2024-02-14T13:45:43;2.87;;;1.63;;
7076;SDS011;3579;48.956;9.154;2024-02-14T13:48:12;4.00;;;1.60;;
7076;SDS011;3579;48.956;9.154;2024-02-14T13:50:38;2.00;;;1.50;;
7076;SDS011;3579;48.956;9.154;2024-02-14T13:53:06;1.60;;;1.17;;
7076;SDS011;3579;48.956;9.154;2024-02-14T13:55:33;2.27;;;1.50;;
7076;SDS011;3579;48.956;9.154;2024-02-14T13:58:00;1.40;;;1.10;;
7076;SDS011;3579;48.956;9.154;2024-02-14T14:00:27;1.70;;;1.13;;
7076;SDS011;3579;48.956;9.154;2024-02-14T14:02:53;2.40;;;1.20;;
7076;SDS011;3579;48.956;9.154;2024-02-14T14:05:19;1.43;;;1.17;;
7076;SDS011;3579;48.956;9.154;2024-02-14T14:07:47;1.50;;;1.20;;
7076;SDS011;3579;48.956;9.154;2024-02-14T14:10:13;2.53;;;1.40;;
7076;SDS011;3579;48.956;9.154;2024-02-14T14:12:39;2.23;;;1.10;;
7076;SDS011;3579;48.956;9.154;2024-02-14T14:15:05;2.40;;;1.30;;
7076;SDS011;3579;48.956;9.154;2024-02-14T14:17:31;3.70;;;1.20;;
7076;SDS011;3579;48.956;9.154;2024-02-14T14:19:57;1.67;;;1.20;;
7076;SDS011;3579;48.956;9.154;2024-02-14T14:22:25;1.47;;;1.20;;
7076;SDS011;3579;48.956;9.154;2024-02-14T14:24:51;1.67;;;1.10;;
7076;SDS011;3579;48.956;9.154;2024-02-14T14:27:17;3.17;;;1.33;;
7076;SDS011;3579;48.956;9.154;2024-02-14T14:29:46;3.07;;;1.10;;
7076;SDS011;3579;48.956;9.154;2024-02-14T14:32:12;2.40;;;1.30;;
7076;SDS011;3579;48.956;9.154;2024-02-14T14:34:38;2.27;;;1.30;;
7076;SDS011;3579;48.956;9.154;2024-02-14T14:37:05;2.80;;;1.17;;
7076;SDS011;3579;48.956;9.154;2024-02-14T14:39:31;1.70;;;1.20;;
7076;SDS011;3579;48.956;9.154;2024-02-14T14:41:57;3.17;;;1.10;;
7076;SDS011;3579;48.956;9.154;2024-02-14T14:44:24;1.40;;;1.20;;
7076;SDS011;3579;48.956;9.154;2024-02-14T14:46:51;2.03;;;1.20;;
7076;SDS011;3579;48.956;9.154;2024-02-14T14:49:17;3.30;;;1.30;;
7076;SDS011;3579;48.956;9.154;2024-02-14T14:51:43;2.50;;;1.27;;
7076;SDS011;3579;48.956;9.154;2024-02-14T14:54:09;2.73;;;1.43;;
7076;SDS011;3579;48.956;9.154;2024-02-14T14:56:36;1.97;;;1.20;;
7076;SDS011;3579;48.956;9.154;2024-02-14T14:59:02;2.70;;;1.63;;
7076;SDS011;3579;48.956;9.154;2024-02-14T15:01:29;2.03;;;1.30;;
7076;SDS011;3579;48.956;9.154;2024-02-14T15:03:56;2.33;;;1.43;;
7076;SDS011;3579;48.956;9.154;2024-02-14T15:06:23;2.23;;;1.13;;
7076;SDS011;3579;48.956;9.154;2024-02-14T15:08:49;5.17;;;1.30;;
7076;SDS011;3579;48.956;9.154;2024-02-14T15:11:16;3.97;;;1.30;;
7076;SDS011;3579;48.956;9.154;2024-02-14T15:13:43;2.67;;;1.40;;